Britt, IA

9:42 PM CST on November 28, 2014 (GMT -0600)
Mason City Municipal | Change Station
CLOSE
Current Station
Airport
Location: Mason City,
Elevation: 1214 ft
Nearby Weather Stations

Elev 1214 ft 43.16 °N, 93.33 °W | Updated 49 minutes ago

Clear
Clear
24 °F
Feels Like 14 °F
N
10
Wind Variable Wind from SE

Today
High -- | Low -- °F
--% Chance of Precip.
Yesterday
High -- | Low -- °F
Precip. -- in
7:23 AM 4:42 PM
Waxing Crescent, 47% visible
Pressure 29.78 in
Visibility 7.0 miles
Clouds Clear
Windchill 14 °F
Dew Point 21 °F
Humidity 88%
Rainfall 0.00 in
Snow Depth Not available.
UV 0 out of 12
Pollen .10 out of 12
Air Quality Not available.
Flu Activity Not available.
METAR KMCW 290253Z AUTO 13009KT 7SM CLR M04/M06 A2974 RMK AO2 PRESFR SLP085 T10441061 58017

More Conditions Fewer Conditions

Pressure 29.78 in
Visibility 7.0 miles
Clouds Clear
Windchill 14 °F
Dew Point 21 °F
Humidity 88%
Rainfall 0.00 in
Snow Depth Not available.
UV 0 out of 12
Pollen .10 out of 12
Air Quality Not available.
Flu Activity Not available.
METAR KMCW 290253Z AUTO 13009KT 7SM CLR M04/M06 A2974 RMK AO2 PRESFR SLP085 T10441061 58017

More Conditions Fewer Conditions

10-Day Weather Forecast

Almanac

Astronomy

Nov. 28, 2014 Rise Set
Actual Time
Civil Twilight
Nautical Twilight
Astronomical Twilight
Moon
Length of Visible Light
Length of Day
Tomorrow will be .
, % of the Moon is Illuminated

Today's Extremes

State Highs State Lows

Community

WunderPhotos

Upload Photos

1,774,389 photos uploaded!

WunderBlogs® & News

Nearby

Air Quality

  Air Quality AQ Index Pollutant
Not available.

Snow Depth

Station Depth Elevation

Earthquake Activity

City Distance Mag. Time & Date
Minimum magnitude displayed is 2.5.

Coastal Water Temperatures

Place Temperature

Nearby Weather Stations